Time;durP1;ratioP1;P1;durP2;ratioP2;P2;SDS_P1;SDS_P2;PMS_P1;PMS_P2;Temp;Humidity;BMP_temperature;BMP_pressure;BME280_temperature;BME280_humidity;BME280_pressure;Samples;Min_cycle;Max_cycle;Signal;HPM_P1;HPM_P2
2021/12/01 00:00:33;;;;;;;4.07;1.08;;;11.20;80.40;;;;;;5016850;28;20030;-84
2021/12/01 00:02:59;;;;;;;1.73;1.10;;;11.30;80.40;;;;;;5034031;28;20025;-84
2021/12/01 00:05:31;;;;;;;1.85;1.00;;;11.20;80.50;;;;;;5036419;28;20029;-83
2021/12/01 00:07:57;;;;;;;2.83;0.98;;;11.30;80.30;;;;;;5031545;28;20037;-84
2021/12/01 00:10:25;;;;;;;2.28;1.02;;;11.30;80.30;;;;;;5016728;28;20049;-84
2021/12/01 00:12:52;;;;;;;1.48;0.90;;;11.30;80.30;;;;;;5017154;28;20029;-84
2021/12/01 00:15:18;;;;;;;4.45;1.00;;;11.30;80.60;;;;;;5017028;28;20484;-83
2021/12/01 00:17:45;;;;;;;3.20;1.05;;;11.30;80.70;;;;;;5016817;28;20030;-84
2021/12/01 00:20:14;;;;;;;3.28;1.25;;;11.30;80.80;;;;;;5017299;28;20786;-83
2021/12/01 00:22:43;;;;;;;1.83;0.90;;;11.30;80.90;;;;;;5016525;28;20036;-84
2021/12/01 00:25:10;;;;;;;0.75;0.63;;;11.30;81.10;;;;;;5016665;28;20022;-83
2021/12/01 00:27:36;;;;;;;2.03;1.23;;;11.20;81.50;;;;;;5017138;28;20084;-83
2021/12/01 00:30:02;;;;;;;3.15;1.48;;;11.30;81.40;;;;;;5016602;28;20017;-84
2021/12/01 00:32:28;;;;;;;4.25;0.93;;;11.20;81.60;;;;;;5032423;28;20622;-84
2021/12/01 00:34:54;;;;;;;3.25;1.10;;;11.20;81.70;;;;;;5031820;28;20480;-83
2021/12/01 00:37:20;;;;;;;4.28;1.00;;;11.30;81.80;;;;;;5016366;28;20440;-83
2021/12/01 00:39:47;;;;;;;2.58;1.10;;;11.20;82.10;;;;;;5016982;28;20030;-84
2021/12/01 00:42:12;;;;;;;4.35;0.77;;;11.20;82.30;;;;;;5032034;28;20048;-83
2021/12/01 00:44:46;;;;;;;1.50;1.08;;;11.20;82.60;;;;;;5019673;28;20082;-84
2021/12/01 00:47:13;;;;;;;2.17;1.00;;;11.20;83.10;;;;;;5055797;28;20023;-84
2021/12/01 00:49:39;;;;;;;2.30;0.77;;;11.20;83.10;;;;;;5029973;28;20030;-84
2021/12/01 00:52:05;;;;;;;1.55;0.82;;;11.20;83.20;;;;;;5015659;28;20029;-83
2021/12/01 00:54:31;;;;;;;1.70;0.90;;;11.20;83.40;;;;;;5016718;28;20030;-84
2021/12/01 00:56:57;;;;;;;3.83;1.10;;;11.20;83.40;;;;;;5014652;28;20033;-83
2021/12/01 00:59:23;;;;;;;2.60;1.15;;;11.20;83.40;;;;;;5016325;28;20030;-84
2021/12/01 01:01:50;;;;;;;1.90;0.98;;;11.20;83.70;;;;;;5027790;28;20116;-84
2021/12/01 01:04:16;;;;;;;3.88;1.17;;;11.20;83.80;;;;;;5035867;28;20053;-84
2021/12/01 01:06:42;;;;;;;3.03;1.02;;;11.20;84.20;;;;;;5030640;28;20473;-84
2021/12/01 01:09:09;;;;;;;3.33;0.88;;;11.20;84.10;;;;;;5015975;28;20021;-83
2021/12/01 01:17:08;;;;;;;3.42;0.90;;;11.20;84.50;;;;;;5015782;28;20100;-83
2021/12/01 01:19:39;;;;;;;7.70;1.40;;;11.20;84.40;;;;;;5014577;28;20022;-83
2021/12/01 01:22:06;;;;;;;;;;;11.30;84.30;;;;;;5016036;28;20037;-84
2021/12/01 01:24:31;;;;;;;1.30;0.77;;;11.30;84.80;;;;;;5035251;28;19995;-83
2021/12/01 01:26:57;;;;;;;3.72;0.80;;;11.30;85.20;;;;;;5035299;28;20075;-84
2021/12/01 01:29:24;;;;;;;5.28;1.20;;;11.20;85.40;;;;;;5032441;28;20087;-83
2021/12/01 01:31:53;;;;;;;9.27;1.10;;;11.20;85.50;;;;;;5016337;28;20021;-83
2021/12/01 01:34:18;;;;;;;7.00;1.40;;;11.20;85.60;;;;;;5016641;28;20583;-84
2021/12/01 01:36:44;;;;;;;4.78;1.40;;;11.30;86.00;;;;;;5016084;28;20103;-83
2021/12/01 01:39:10;;;;;;;4.85;1.23;;;11.30;86.10;;;;;;5016505;28;20444;-84
2021/12/01 01:41:35;;;;;;;2.00;0.77;;;11.30;86.10;;;;;;5030576;28;20029;-84
2021/12/01 01:44:02;;;;;;;4.93;1.27;;;11.30;86.30;;;;;;5033557;28;20030;-84
2021/12/01 01:46:33;;;;;;;1.45;0.77;;;11.20;86.60;;;;;;5035100;28;20424;-83
2021/12/01 01:49:06;;;;;;;3.22;1.35;;;11.30;86.50;;;;;;5020115;28;20033;-83
2021/12/01 01:51:33;;;;;;;5.18;1.08;;;11.30;86.60;;;;;;5015354;28;20515;-84
2021/12/01 01:53:59;;;;;;;2.40;0.98;;;11.20;87.00;;;;;;5015451;28;20038;-83
2021/12/01 01:56:25;;;;;;;1.33;0.98;;;11.20;87.50;;;;;;5015200;28;20113;-83
2021/12/01 01:59:04;;;;;;;;;;;;;;;;;;;;;
2021/12/01 02:01:53;;;;;;;1.17;0.70;;;11.30;87.60;;;;;;5015666;28;20041;-83
2021/12/01 02:04:19;;;;;;;1.13;0.73;;;11.20;87.80;;;;;;5013649;28;20265;-83
2021/12/01 02:06:47;;;;;;;2.30;0.80;;;11.20;87.90;;;;;;5015071;28;20026;-83
2021/12/01 02:09:14;;;;;;;1.73;0.88;;;11.30;87.80;;;;;;5015016;28;20033;-84
2021/12/01 02:11:41;;;;;;;1.63;0.90;;;11.30;87.80;;;;;;5013789;28;20053;-83
2021/12/01 02:14:07;;;;;;;2.03;1.15;;;11.30;87.70;;;;;;5015085;28;20137;-84
2021/12/01 02:16:36;;;;;;;0.93;0.70;;;11.40;87.70;;;;;;5028981;28;20038;-83
2021/12/01 02:19:02;;;;;;;0.88;0.60;;;11.40;87.60;;;;;;5013801;28;20033;-84
2021/12/01 02:21:29;;;;;;;0.80;0.60;;;11.40;87.70;;;;;;5014547;28;20042;-83
2021/12/01 02:24:21;;;;;;;0.90;0.70;;;11.50;87.60;;;;;;5015426;28;20029;-83
2021/12/01 02:26:49;;;;;;;2.65;0.90;;;11.50;87.60;;;;;;5015039;28;20441;-83
2021/12/01 02:29:23;;;;;;;1.13;0.80;;;11.50;87.80;;;;;;5018956;28;20038;-83
2021/12/01 02:31:50;;;;;;;1.33;0.80;;;11.40;88.00;;;;;;5019052;28;20045;-83
2021/12/01 02:34:22;;;;;;;1.35;0.80;;;11.50;87.90;;;;;;5017775;28;20026;-83
2021/12/01 02:36:51;;;;;;;1.27;0.70;;;11.50;87.90;;;;;;5017667;28;20034;-83
2021/12/01 02:39:19;;;;;;;4.00;1.40;;;11.50;88.10;;;;;;5018481;28;20022;-83
2021/12/01 02:41:52;;;;;;;1.02;0.70;;;11.50;88.10;;;;;;5033465;28;20030;-83
2021/12/01 02:44:18;;;;;;;2.00;0.80;;;11.50;88.30;;;;;;5032798;28;20567;-82
2021/12/01 02:46:45;;;;;;;1.75;0.70;;;11.50;88.30;;;;;;5057744;28;20391;-83
2021/12/01 02:49:11;;;;;;;2.85;0.80;;;11.50;88.40;;;;;;5058349;28;20093;-83
2021/12/01 02:51:38;;;;;;;2.83;0.70;;;11.50;88.50;;;;;;5058484;28;20459;-83
2021/12/01 02:54:06;;;;;;;1.40;0.60;;;11.50;88.30;;;;;;5042805;28;20030;-83
2021/12/01 02:56:33;;;;;;;2.65;0.73;;;11.50;88.70;;;;;;5018258;28;20053;-83
2021/12/01 02:59:01;;;;;;;1.75;0.80;;;11.50;88.80;;;;;;5018468;28;20030;-83
2021/12/01 03:01:36;;;;;;;5.07;1.52;;;11.50;88.80;;;;;;5018837;28;20439;-83
2021/12/01 03:04:03;;;;;;;1.42;0.70;;;11.60;88.80;;;;;;5018555;28;20077;-83
2021/12/01 03:06:29;;;;;;;1.15;0.75;;;11.60;88.80;;;;;;5018090;28;20041;-83
2021/12/01 03:08:57;;;;;;;1.60;0.70;;;11.70;88.90;;;;;;5018311;28;20029;-83
2021/12/01 03:11:23;;;;;;;3.38;0.70;;;11.70;88.70;;;;;;5018670;28;20079;-83
2021/12/01 03:13:49;;;;;;;2.88;0.60;;;11.70;88.40;;;;;;5018420;28;20105;-83
2021/12/01 03:16:15;;;;;;;0.77;0.50;;;11.80;88.30;;;;;;5018336;28;20061;-84
2021/12/01 03:18:59;;;;;;;3.25;0.63;;;11.70;88.20;;;;;;5018296;28;20037;-83
2021/12/01 03:21:24;;;;;;;1.95;0.60;;;11.70;88.40;;;;;;5018682;28;20068;-83
2021/12/01 03:23:50;;;;;;;2.58;0.55;;;11.80;88.10;;;;;;5017986;28;20057;-83
2021/12/01 03:26:16;;;;;;;2.13;0.60;;;11.80;88.00;;;;;;5018402;28;20058;-84
2021/12/01 03:28:41;;;;;;;0.98;0.50;;;11.90;88.00;;;;;;5017970;28;20037;-83
2021/12/01 03:31:07;;;;;;;1.25;0.60;;;11.80;88.40;;;;;;5016391;28;20037;-83
2021/12/01 03:33:33;;;;;;;1.00;0.70;;;11.80;88.40;;;;;;5016064;28;20037;-82
2021/12/01 03:35:59;;;;;;;0.82;0.68;;;11.80;88.50;;;;;;5037739;28;20037;-83
2021/12/01 03:38:27;;;;;;;0.40;0.40;;;11.80;88.50;;;;;;5037440;28;20044;-83
2021/12/01 03:40:53;;;;;;;2.25;0.60;;;11.90;88.60;;;;;;5027557;28;20104;-83
2021/12/01 03:43:20;;;;;;;0.82;0.60;;;11.90;88.50;;;;;;5037392;28;20451;-83
2021/12/01 03:45:46;;;;;;;0.60;0.50;;;11.90;88.50;;;;;;5036073;28;20030;-83
2021/12/01 03:48:11;;;;;;;0.50;0.40;;;12.00;88.40;;;;;;5024135;28;20437;-83
2021/12/01 03:50:38;;;;;;;1.65;0.47;;;11.90;88.60;;;;;;5017609;28;20420;-83
2021/12/01 03:53:05;;;;;;;0.60;0.40;;;12.00;88.70;;;;;;5017202;28;20030;-83
2021/12/01 03:55:31;;;;;;;0.63;0.40;;;12.00;88.60;;;;;;5017434;28;20790;-83
2021/12/01 03:57:56;;;;;;;0.43;0.40;;;12.00;88.80;;;;;;5017450;28;20049;-83
2021/12/01 04:00:22;;;;;;;1.30;0.60;;;12.00;89.00;;;;;;5017918;28;20026;-83
2021/12/01 04:02:48;;;;;;;0.75;0.50;;;12.00;88.80;;;;;;5017201;28;20104;-83
2021/12/01 04:05:14;;;;;;;0.47;0.45;;;12.00;88.90;;;;;;5017497;28;20396;-83
2021/12/01 04:07:40;;;;;;;0.40;0.40;;;12.10;88.80;;;;;;5017016;28;20037;-83
2021/12/01 04:10:14;;;;;;;0.80;0.50;;;12.10;88.90;;;;;;5017006;28;20045;-83
2021/12/01 04:12:41;;;;;;;0.52;0.47;;;12.10;88.80;;;;;;5017342;28;20022;-83
2021/12/01 04:15:08;;;;;;;0.73;0.52;;;12.10;88.60;;;;;;5017461;28;20521;-83
2021/12/01 04:17:33;;;;;;;0.60;0.50;;;12.10;88.70;;;;;;5017067;28;20033;-83
2021/12/01 04:19:59;;;;;;;2.55;0.70;;;12.20;88.70;;;;;;5017048;28;20029;-83
2021/12/01 04:22:25;;;;;;;1.15;0.70;;;12.20;88.50;;;;;;5017219;28;20030;-84
2021/12/01 04:24:51;;;;;;;0.77;0.60;;;12.20;88.50;;;;;;5016953;28;20388;-83
2021/12/01 04:27:19;;;;;;;1.73;0.57;;;12.20;88.40;;;;;;5017208;28;20032;-83
2021/12/01 04:29:45;;;;;;;0.88;0.50;;;12.30;88.10;;;;;;5016906;28;20033;-83
2021/12/01 04:32:10;;;;;;;1.33;0.80;;;12.20;88.10;;;;;;5032730;28;20021;-83
2021/12/01 04:34:37;;;;;;;1.00;0.70;;;12.20;88.10;;;;;;5036573;28;20029;-83
2021/12/01 04:37:04;;;;;;;1.00;0.70;;;12.20;88.30;;;;;;5021520;28;20484;-83
2021/12/01 04:39:30;;;;;;;0.63;0.50;;;12.30;88.40;;;;;;5016632;28;20022;-83
2021/12/01 04:41:56;;;;;;;1.23;0.70;;;12.30;88.40;;;;;;5034089;28;20029;-83
2021/12/01 04:44:36;;;;;;;0.70;0.50;;;12.30;88.20;;;;;;5026328;28;20029;-83
2021/12/01 04:47:08;;;;;;;1.70;0.65;;;12.20;88.40;;;;;;5056278;28;20028;-83
2021/12/01 04:49:37;;;;;;;1.20;0.60;;;12.20;88.30;;;;;;5050916;28;20110;-84
2021/12/01 04:52:04;;;;;;;3.58;0.63;;;12.20;88.10;;;;;;5016324;28;20113;-84
2021/12/01 04:54:30;;;;;;;3.03;0.70;;;12.20;88.10;;;;;;5018541;28;20033;-84
2021/12/01 04:56:57;;;;;;;1.02;0.50;;;12.20;87.70;;;;;;5016736;28;20022;-84
2021/12/01 04:59:24;;;;;;;3.13;0.60;;;12.10;87.80;;;;;;5018172;28;20029;-83
2021/12/01 05:01:52;;;;;;;0.90;0.60;;;12.00;87.70;;;;;;5016980;28;20022;-84
2021/12/01 05:04:18;;;;;;;2.33;0.70;;;11.90;87.40;;;;;;5016532;28;20026;-83
2021/12/01 05:09:47;;;;;;;1.60;0.60;;;11.80;87.30;;;;;;5016353;28;20042;-84
2021/12/01 05:12:13;;;;;;;2.50;1.00;;;11.80;87.40;;;;;;5016189;28;20064;-83
2021/12/01 05:14:39;;;;;;;1.95;0.70;;;11.70;87.20;;;;;;5015943;28;20435;-84
2021/12/01 05:17:06;;;;;;;3.85;0.90;;;11.70;87.20;;;;;;5015987;28;20101;-84
2021/12/01 05:19:31;;;;;;;2.38;1.05;;;11.60;87.20;;;;;;5015916;28;20048;-84
2021/12/01 05:21:57;;;;;;;1.65;0.68;;;11.50;86.90;;;;;;5014828;28;20228;-84
2021/12/01 05:24:23;;;;;;;4.85;0.90;;;11.50;87.00;;;;;;5015596;28;20026;-83
2021/12/01 05:26:49;;;;;;;4.53;0.88;;;11.40;87.00;;;;;;5014348;28;20487;-84
2021/12/01 05:29:16;;;;;;;4.93;0.90;;;11.40;86.80;;;;;;5026787;28;20460;-83
2021/12/01 05:31:42;;;;;;;2.00;1.00;;;11.30;86.70;;;;;;5031639;28;20018;-84
2021/12/01 05:34:08;;;;;;;8.13;1.00;;;11.30;86.50;;;;;;5027388;28;20029;-84
2021/12/01 05:36:35;;;;;;;5.75;0.95;;;11.40;86.90;;;;;;5033934;28;20380;-84
2021/12/01 05:39:01;;;;;;;3.53;0.88;;;11.50;86.90;;;;;;5024705;28;20022;-79
2021/12/01 05:41:32;;;;;;;6.20;1.02;;;11.50;86.60;;;;;;5021080;28;20026;-85
2021/12/01 05:43:58;;;;;;;4.30;0.93;;;11.50;86.70;;;;;;5014812;28;20709;-90
2021/12/01 05:46:23;;;;;;;4.35;0.80;;;11.60;86.50;;;;;;5050394;28;20021;-88
2021/12/01 05:48:52;;;;;;;1.20;0.75;;;11.50;86.20;;;;;;5057508;28;20039;-90
2021/12/01 05:51:19;;;;;;;4.40;1.05;;;11.60;86.50;;;;;;5055189;28;20024;-85
2021/12/01 05:53:46;;;;;;;6.43;0.98;;;11.50;85.60;;;;;;5039050;28;20047;-87
2021/12/01 05:56:12;;;;;;;5.03;1.33;;;11.50;86.00;;;;;;5035419;28;20030;-89
2021/12/01 05:58:37;;;;;;;4.00;1.38;;;11.50;85.80;;;;;;5037133;28;20155;-86
2021/12/01 06:01:03;;;;;;;2.63;1.02;;;11.40;85.60;;;;;;5035251;28;20025;-81
2021/12/01 06:03:29;;;;;;;12.18;1.65;;;11.30;85.20;;;;;;5028881;28;20064;-81
2021/12/01 06:05:55;;;;;;;8.00;1.13;;;11.20;85.30;;;;;;5014514;28;20025;-78
2021/12/01 06:08:21;;;;;;;5.45;1.50;;;11.20;84.90;;;;;;5023246;28;20420;-79
2021/12/01 06:10:46;;;;;;;4.18;1.35;;;11.20;85.10;;;;;;5018194;28;20069;-79
2021/12/01 06:13:17;;;;;;;9.35;1.40;;;11.20;85.00;;;;;;5022708;28;20523;-79
2021/12/01 06:15:44;;;;;;;8.32;1.73;;;11.20;85.10;;;;;;5027855;28;20030;-79
2021/12/01 06:18:10;;;;;;;11.27;1.48;;;11.30;84.80;;;;;;5018837;28;20512;-78
2021/12/01 06:20:36;;;;;;;11.88;1.75;;;11.20;84.70;;;;;;5017373;28;20034;-77
2021/12/01 06:23:02;;;;;;;7.32;1.63;;;11.20;84.00;;;;;;5014594;28;20022;-76
2021/12/01 06:25:28;;;;;;;12.43;1.67;;;11.20;84.30;;;;;;5015025;28;20030;-75
2021/12/01 06:27:55;;;;;;;8.68;1.40;;;11.20;84.10;;;;;;5025055;28;20097;-76
2021/12/01 06:30:25;;;;;;;10.50;1.65;;;11.10;84.10;;;;;;5031204;28;20033;-78
2021/12/01 06:32:51;;;;;;;9.55;1.42;;;11.10;83.60;;;;;;5031112;28;20024;-76
2021/12/01 06:35:17;;;;;;;12.23;1.60;;;11.00;84.20;;;;;;5009758;28;20041;-76
2021/12/01 06:37:44;;;;;;;4.38;1.17;;;11.00;84.20;;;;;;5017368;28;20030;-76
2021/12/01 06:40:10;;;;;;;8.80;1.25;;;11.00;84.10;;;;;;5019441;28;20507;-76
2021/12/01 06:42:36;;;;;;;7.70;1.67;;;10.90;84.20;;;;;;5014709;28;20382;-76
2021/12/01 06:45:05;;;;;;;8.15;1.65;;;10.80;84.10;;;;;;5026320;28;20028;-76
2021/12/01 06:47:31;;;;;;;6.50;1.20;;;10.80;83.80;;;;;;5054504;28;20028;-76
2021/12/01 06:49:59;;;;;;;6.47;1.58;;;10.80;83.80;;;;;;5038805;28;20033;-76
2021/12/01 06:52:27;;;;;;;7.93;1.67;;;10.70;84.10;;;;;;5014668;28;20519;-76
2021/12/01 06:55:14;;;;;;;10.88;1.40;;;10.70;84.30;;;;;;5027682;28;20040;-76
2021/12/01 06:57:39;;;;;;;8.88;1.65;;;10.70;84.00;;;;;;5026229;28;20424;-76
2021/12/01 07:00:11;;;;;;;9.13;1.70;;;10.70;84.00;;;;;;5030572;28;20154;-76
2021/12/01 07:02:38;;;;;;;6.07;1.40;;;10.70;84.20;;;;;;5032276;28;20113;-76
2021/12/01 07:05:04;;;;;;;4.80;1.33;;;10.60;83.90;;;;;;5034134;28;20825;-76
2021/12/01 07:07:30;;;;;;;10.30;1.58;;;10.60;84.10;;;;;;5018899;28;20384;-76
2021/12/01 07:09:55;;;;;;;18.02;2.35;;;10.60;84.00;;;;;;5014695;28;20026;-76
2021/12/01 07:12:22;;;;;;;11.55;2.22;;;10.50;83.70;;;;;;5014444;28;20809;-76
2021/12/01 07:14:48;;;;;;;7.38;1.65;;;10.40;84.50;;;;;;5014381;28;20038;-76
2021/12/01 07:17:14;;;;;;;6.75;1.30;;;10.50;84.20;;;;;;5017231;28;20034;-76
2021/12/01 07:19:40;;;;;;;8.00;1.90;;;10.40;83.90;;;;;;5018134;28;20030;-76
2021/12/01 07:22:06;;;;;;;9.65;2.25;;;10.40;84.20;;;;;;5017900;28;20026;-76
2021/12/01 07:24:32;;;;;;;11.52;1.45;;;10.30;84.00;;;;;;5017988;28;20168;-76
2021/12/01 07:26:58;;;;;;;15.50;1.85;;;10.30;84.30;;;;;;5030526;28;20041;-76
2021/12/01 07:29:25;;;;;;;8.23;1.33;;;10.30;84.10;;;;;;5033440;28;20100;-76
2021/12/01 07:31:51;;;;;;;4.88;1.38;;;10.30;84.20;;;;;;5018241;28;20120;-76
2021/12/01 07:34:17;;;;;;;10.48;1.88;;;10.30;83.90;;;;;;5017931;28;20080;-75
2021/12/01 07:36:42;;;;;;;8.98;1.35;;;10.30;84.10;;;;;;5017620;28;20500;-76
2021/12/01 07:39:08;;;;;;;10.18;2.28;;;10.30;83.90;;;;;;5017944;28;20031;-76
2021/12/01 07:41:34;;;;;;;10.20;1.92;;;10.30;83.80;;;;;;5018139;28;20345;-76
2021/12/01 07:44:00;;;;;;;6.15;1.58;;;10.30;83.60;;;;;;5029295;28;20014;-76
2021/12/01 07:46:25;;;;;;;10.93;2.38;;;10.30;83.40;;;;;;5054500;28;20036;-76
2021/12/01 07:48:51;;;;;;;9.45;2.60;;;10.30;83.00;;;;;;5037538;28;20046;-76
2021/12/01 07:51:17;;;;;;;9.50;1.83;;;10.30;83.20;;;;;;5017283;28;20030;-76
2021/12/01 07:53:43;;;;;;;15.23;2.40;;;10.40;83.20;;;;;;5017062;28;20038;-76
2021/12/01 07:56:09;;;;;;;10.32;1.73;;;10.50;82.80;;;;;;5017940;28;20112;-76
2021/12/01 07:58:34;;;;;;;14.82;2.20;;;10.60;82.70;;;;;;5017433;28;20064;-76
2021/12/01 08:01:00;;;;;;;7.20;1.45;;;10.80;82.60;;;;;;5017546;28;20504;-76
2021/12/01 08:03:26;;;;;;;7.93;2.05;;;10.80;82.40;;;;;;5017136;28;20026;-76
2021/12/01 08:05:52;;;;;;;7.60;2.13;;;10.90;82.60;;;;;;5017316;28;20033;-76
2021/12/01 08:08:17;;;;;;;12.25;2.10;;;10.90;82.30;;;;;;5017046;28;20022;-76
2021/12/01 08:10:45;;;;;;;12.27;1.75;;;10.80;82.70;;;;;;5016815;28;20137;-76
2021/12/01 08:13:11;;;;;;;17.92;2.17;;;10.80;82.70;;;;;;5017222;28;20491;-76
2021/12/01 08:15:36;;;;;;;13.07;2.00;;;10.90;83.10;;;;;;5016180;28;20025;-76
2021/12/01 08:18:02;;;;;;;8.20;1.70;;;10.80;83.20;;;;;;5016995;28;20025;-76
2021/12/01 08:20:28;;;;;;;12.60;2.03;;;10.80;83.40;;;;;;5017168;28;20116;-76
2021/12/01 08:22:54;;;;;;;10.65;1.63;;;10.80;83.60;;;;;;5016756;28;20547;-76
2021/12/01 08:25:21;;;;;;;9.35;2.72;;;10.80;83.40;;;;;;5017084;28;20096;-76
2021/12/01 08:27:47;;;;;;;13.32;2.40;;;10.90;83.40;;;;;;5036166;28;20021;-76
2021/12/01 08:30:13;;;;;;;8.95;2.25;;;10.90;83.30;;;;;;5036248;28;20037;-76
2021/12/01 08:32:45;;;;;;;9.38;2.20;;;11.00;83.10;;;;;;5023786;28;20099;-76
2021/12/01 08:35:12;;;;;;;14.40;2.10;;;10.90;82.90;;;;;;5015336;28;20022;-76
2021/12/01 08:37:37;;;;;;;9.90;2.40;;;11.00;82.90;;;;;;5015562;28;20088;-76
2021/12/01 08:40:03;;;;;;;8.82;1.80;;;11.10;82.80;;;;;;5015810;28;20026;-76
2021/12/01 08:42:29;;;;;;;16.38;3.47;;;11.10;82.70;;;;;;5016523;28;20033;-76
2021/12/01 08:44:55;;;;;;;8.73;2.20;;;11.20;82.30;;;;;;5039811;28;20549;-76
2021/12/01 08:47:24;;;;;;;13.50;2.13;;;11.30;82.20;;;;;;5045698;28;20057;-76
2021/12/01 08:49:50;;;;;;;7.30;1.70;;;11.30;82.20;;;;;;5016417;28;20080;-76
2021/12/01 08:52:16;;;;;;;12.40;2.95;;;11.40;82.30;;;;;;5016652;28;20038;-76
2021/12/01 08:54:41;;;;;;;7.57;2.47;;;11.40;82.20;;;;;;5016390;28;20650;-76
2021/12/01 08:57:07;;;;;;;13.77;4.38;;;11.30;82.10;;;;;;5016356;28;20041;-76
2021/12/01 08:59:34;;;;;;;13.40;3.22;;;11.40;82.10;;;;;;5016339;28;20026;-76
2021/12/01 09:02:02;;;;;;;11.68;2.67;;;11.50;81.50;;;;;;5027631;28;20034;-76
2021/12/01 09:04:28;;;;;;;11.98;2.15;;;11.70;81.30;;;;;;5016074;28;20029;-76
2021/12/01 09:06:54;;;;;;;13.23;2.03;;;11.90;80.80;;;;;;5015933;28;20018;-76
2021/12/01 09:09:20;;;;;;;13.93;2.20;;;11.90;80.50;;;;;;5015879;28;20480;-76
2021/12/01 09:11:47;;;;;;;17.05;2.63;;;12.00;80.60;;;;;;5016196;28;20067;-76
2021/12/01 09:14:13;;;;;;;7.57;2.08;;;12.20;80.20;;;;;;5016692;28;20045;-76
2021/12/01 09:16:40;;;;;;;16.67;2.15;;;12.00;80.40;;;;;;5016230;28;20552;-76
2021/12/01 09:19:05;;;;;;;16.38;2.20;;;12.00;80.50;;;;;;5015959;28;20479;-76
2021/12/01 09:21:31;;;;;;;7.93;1.75;;;11.90;80.00;;;;;;5014906;28;20033;-76
2021/12/01 09:23:57;;;;;;;12.48;2.53;;;11.90;80.20;;;;;;5015557;28;20168;-76
2021/12/01 09:26:23;;;;;;;16.92;3.50;;;11.90;80.20;;;;;;5023625;28;20392;-76
2021/12/01 09:28:48;;;;;;;15.88;3.00;;;11.80;80.30;;;;;;5035576;28;20033;-76
2021/12/01 09:31:14;;;;;;;13.95;3.42;;;11.80;80.00;;;;;;5022315;28;20533;-76
2021/12/01 09:33:40;;;;;;;5.45;2.00;;;11.90;80.20;;;;;;5015614;28;20029;-76
2021/12/01 09:36:06;;;;;;;11.32;2.20;;;11.90;80.10;;;;;;5014441;28;20018;-76
2021/12/01 09:38:32;;;;;;;15.52;2.28;;;11.90;79.50;;;;;;5016037;28;20026;-76
2021/12/01 09:40:58;;;;;;;10.77;1.83;;;11.90;79.50;;;;;;5015572;28;20029;-76
2021/12/01 09:43:27;;;;;;;14.27;2.70;;;11.80;79.20;;;;;;5015331;28;20504;-76
2021/12/01 09:45:55;;;;;;;15.82;2.45;;;11.80;77.70;;;;;;5040480;28;20029;-76
2021/12/01 09:48:21;;;;;;;5.60;1.65;;;11.80;78.40;;;;;;5044264;28;20026;-76
2021/12/01 09:50:47;;;;;;;9.95;1.63;;;11.90;78.10;;;;;;5015567;28;20026;-76
2021/12/01 09:53:13;;;;;;;11.57;1.95;;;11.90;77.60;;;;;;5015371;28;20113;-76
2021/12/01 09:55:40;;;;;;;11.43;1.60;;;12.10;77.50;;;;;;5015645;28;20100;-76
2021/12/01 09:58:12;;;;;;;6.10;1.38;;;12.10;76.40;;;;;;5015284;28;20108;-75
2021/12/01 10:00:41;;;;;;;6.93;1.70;;;12.20;76.70;;;;;;5026595;28;20074;-76
2021/12/01 10:03:07;;;;;;;11.18;1.83;;;12.20;75.90;;;;;;5015233;28;20084;-76
2021/12/01 10:05:51;;;;;;;9.82;1.92;;;12.30;75.10;;;;;;5015608;28;20056;-76
2021/12/01 10:08:20;;;;;;;10.07;1.83;;;12.70;75.00;;;;;;5015093;28;20026;-76
2021/12/01 10:10:46;;;;;;;11.32;1.60;;;12.80;73.60;;;;;;5014985;28;20049;-76
2021/12/01 10:13:12;;;;;;;6.40;1.80;;;12.70;73.10;;;;;;5016697;28;20026;-76
2021/12/01 10:15:38;;;;;;;8.05;1.65;;;12.70;73.40;;;;;;5015563;28;20042;-76
2021/12/01 10:18:17;;;;;;;7.57;1.77;;;12.50;75.40;;;;;;5013690;28;20409;-76
2021/12/01 10:20:55;;;;;;;12.68;1.92;;;12.20;75.00;;;;;;5024097;28;20037;-76
2021/12/01 10:23:20;;;;;;;2.95;1.00;;;11.80;74.50;;;;;;5030390;28;20480;-76
2021/12/01 10:25:46;;;;;;;6.63;1.08;;;11.60;75.40;;;;;;5017648;28;20107;-76
2021/12/01 10:28:33;;;;;;;3.15;0.95;;;11.50;76.40;;;;;;5033593;28;20025;-76
2021/12/01 10:30:59;;;;;;;5.30;1.15;;;11.30;76.20;;;;;;5015033;28;20415;-76
2021/12/01 10:33:27;;;;;;;5.05;1.52;;;11.40;76.30;;;;;;5015477;28;20030;-76
2021/12/01 10:35:52;;;;;;;7.93;1.73;;;11.40;75.80;;;;;;5014848;28;20033;-76
2021/12/01 10:38:29;;;;;;;8.93;1.30;;;11.40;76.30;;;;;;5014464;28;20033;-76
2021/12/01 10:41:33;;;;;;;3.92;1.40;;;11.40;76.70;;;;;;5015211;28;20029;-76
2021/12/01 10:44:09;;;;;;;10.35;2.00;;;11.30;76.20;;;;;;5028446;28;20052;-76
2021/12/01 10:46:44;;;;;;;6.55;1.20;;;11.30;76.40;;;;;;5052902;28;20028;-76
2021/12/01 10:49:09;;;;;;;8.50;1.23;;;11.20;76.70;;;;;;5038835;28;20034;-76
2021/12/01 10:51:39;;;;;;;9.23;1.80;;;11.20;76.90;;;;;;5018756;28;20078;-76
2021/12/01 10:54:12;;;;;;;4.00;1.75;;;11.20;76.80;;;;;;5018409;28;20149;-76
2021/12/01 10:56:38;;;;;;;9.88;1.30;;;11.30;76.70;;;;;;5017845;28;20030;-76
2021/12/01 10:59:12;;;;;;;9.07;1.45;;;11.50;75.90;;;;;;5018602;28;20030;-76
2021/12/01 11:01:38;;;;;;;8.52;1.95;;;11.60;75.50;;;;;;5018468;28;20392;-76
2021/12/01 11:04:05;;;;;;;8.98;1.50;;;11.70;75.50;;;;;;5018541;28;20026;-76
2021/12/01 11:06:35;;;;;;;6.50;1.52;;;11.80;75.10;;;;;;5018174;28;20048;-76
2021/12/01 11:09:02;;;;;;;6.57;1.70;;;11.80;75.40;;;;;;5018523;28;20116;-76
2021/12/01 11:11:42;;;;;;;6.30;1.63;;;11.90;75.10;;;;;;5017951;28;20096;-76
2021/12/01 11:14:09;;;;;;;12.85;1.90;;;11.90;75.40;;;;;;5018483;28;20420;-76
2021/12/01 11:16:39;;;;;;;15.40;2.00;;;12.10;75.20;;;;;;5019643;28;20038;-76
2021/12/01 11:19:05;;;;;;;10.65;2.38;;;12.30;74.20;;;;;;5029149;28;20498;-76
2021/12/01 11:21:30;;;;;;;7.45;1.63;;;12.50;74.00;;;;;;5038056;28;20494;-76
2021/12/01 11:24:04;;;;;;;8.45;1.83;;;12.70;73.50;;;;;;5037899;28;20032;-76
2021/12/01 11:26:31;;;;;;;5.25;1.17;;;12.70;73.00;;;;;;5018967;28;20577;-76
2021/12/01 11:29:00;;;;;;;10.75;1.73;;;12.50;70.80;;;;;;5017786;28;20089;-76
2021/12/01 11:31:28;;;;;;;7.78;1.85;;;12.40;70.40;;;;;;5018465;28;20117;-76
2021/12/01 11:33:57;;;;;;;7.53;1.33;;;12.30;71.90;;;;;;5017857;28;20034;-76
2021/12/01 11:36:29;;;;;;;7.00;1.83;;;12.20;71.40;;;;;;5033139;28;20029;-76
2021/12/01 11:38:58;;;;;;;6.32;1.73;;;12.00;71.50;;;;;;5038004;28;20068;-76
2021/12/01 11:41:24;;;;;;;6.10;3.08;;;11.80;71.90;;;;;;5037309;28;20033;-76
2021/12/01 11:43:51;;;;;;;8.90;2.17;;;11.60;73.20;;;;;;5029299;28;20053;-76
2021/12/01 11:46:17;;;;;;;7.45;1.52;;;11.50;73.10;;;;;;5035149;28;20037;-76
2021/12/01 11:48:53;;;;;;;9.68;1.60;;;11.80;73.40;;;;;;5025046;28;20503;-76
2021/12/01 11:51:21;;;;;;;6.00;1.48;;;12.00;72.20;;;;;;5032846;28;20030;-76
2021/12/01 11:53:55;;;;;;;10.63;1.73;;;12.30;71.40;;;;;;5018065;28;20100;-76
2021/12/01 11:56:26;;;;;;;2.92;1.45;;;12.40;70.20;;;;;;5017606;28;20018;-76
2021/12/01 11:59:13;;;;;;;5.78;1.50;;;12.50;71.40;;;;;;5017625;28;20018;-76
2021/12/01 12:01:46;;;;;;;4.07;1.20;;;12.30;70.20;;;;;;5028335;28;20025;-76
2021/12/01 12:04:15;;;;;;;11.48;2.75;;;12.30;71.10;;;;;;5036620;28;20032;-76
2021/12/01 12:06:47;;;;;;;6.45;1.60;;;12.30;71.80;;;;;;5036906;28;20045;-76
2021/12/01 12:09:15;;;;;;;4.47;1.15;;;12.10;71.70;;;;;;5034679;28;20650;-76
2021/12/01 12:11:47;;;;;;;7.20;1.38;;;11.70;72.30;;;;;;5021147;28;20045;-76
2021/12/01 12:14:15;;;;;;;5.95;1.25;;;11.40;74.00;;;;;;5037021;28;20026;-76
2021/12/01 12:17:00;;;;;;;7.05;1.52;;;11.30;74.80;;;;;;5028837;28;20108;-76
2021/12/01 12:19:44;;;;;;;6.93;1.45;;;11.30;74.80;;;;;;5016856;28;20111;-77
2021/12/01 12:22:24;;;;;;;6.85;1.48;;;11.30;75.00;;;;;;5016908;28;20030;-76
2021/12/01 12:24:53;;;;;;;9.80;1.92;;;11.30;75.40;;;;;;5017497;28;20463;-76
2021/12/01 12:27:32;;;;;;;3.20;1.88;;;11.30;75.60;;;;;;5016817;28;20137;-76
2021/12/01 12:29:59;;;;;;;8.93;1.83;;;11.30;75.60;;;;;;5016887;28;20511;-77
2021/12/01 12:32:29;;;;;;;11.88;3.58;;;11.50;76.00;;;;;;5015932;28;20121;-76
2021/12/01 12:34:57;;;;;;;9.82;2.15;;;11.50;76.00;;;;;;5015405;28;20036;-76
2021/12/01 12:37:26;;;;;;;5.05;2.10;;;11.20;75.60;;;;;;5016739;28;20032;-77
2021/12/01 12:39:53;;;;;;;10.70;2.05;;;11.30;77.60;;;;;;5035870;28;20576;-76
2021/12/01 12:42:19;;;;;;;7.55;1.50;;;11.20;76.60;;;;;;5032343;28;20614;-77
2021/12/01 12:44:46;;;;;;;5.97;1.10;;;11.00;75.40;;;;;;5037033;28;20020;-77
2021/12/01 12:47:13;;;;;;;4.05;1.27;;;10.80;77.90;;;;;;5056424;28;20564;-76
2021/12/01 12:49:47;;;;;;;6.93;2.58;;;10.90;77.30;;;;;;5040556;28;20112;-76
2021/12/01 12:52:25;;;;;;;7.05;1.55;;;10.80;76.20;;;;;;5016387;28;20029;-76
2021/12/01 12:55:04;;;;;;;6.88;2.70;;;10.80;76.60;;;;;;5016698;28;20480;-76
2021/12/01 12:57:48;;;;;;;9.18;3.45;;;10.80;76.60;;;;;;5016594;28;20536;-76